Time;durP1;ratioP1;P1;durP2;ratioP2;P2;SDS_P1;SDS_P2;PMS_P1;PMS_P2;Temp;Humidity;BMP_temperature;BMP_pressure;BME280_temperature;BME280_humidity;BME280_pressure;Samples;Min_cycle;Max_cycle;Signal;HPM_P1;HPM_P2
2021/06/02 00:00:15;;;;;;;4.50;2.83;;;17.00;66.80;;;;;;5094880;28;20077;-65
2021/06/02 00:02:45;;;;;;;3.22;2.75;;;16.90;66.90;;;;;;5095128;28;20115;-65
2021/06/02 00:05:12;;;;;;;4.53;2.75;;;16.90;67.20;;;;;;5096351;28;20028;-65
2021/06/02 00:07:41;;;;;;;6.55;2.60;;;16.90;67.50;;;;;;5094338;28;20028;-65
2021/06/02 00:10:09;;;;;;;4.05;2.63;;;16.80;67.70;;;;;;5093758;28;20120;-65
2021/06/02 00:12:35;;;;;;;3.15;2.22;;;16.80;68.00;;;;;;5094187;28;20384;-65
2021/06/02 00:15:02;;;;;;;4.05;2.92;;;16.70;68.10;;;;;;5093943;28;20020;-65
2021/06/02 00:17:28;;;;;;;3.15;2.40;;;16.70;68.30;;;;;;5093899;28;20035;-64
2021/06/02 00:19:54;;;;;;;4.47;2.20;;;16.60;68.20;;;;;;5094058;28;20016;-64
2021/06/02 00:22:20;;;;;;;5.38;2.83;;;16.60;68.40;;;;;;5093757;28;20493;-64
2021/06/02 00:24:46;;;;;;;4.82;2.72;;;16.60;68.60;;;;;;5093754;28;20024;-65
2021/06/02 00:27:12;;;;;;;3.80;2.53;;;16.50;68.70;;;;;;5093920;28;20119;-65
2021/06/02 00:29:40;;;;;;;5.82;2.72;;;16.50;68.90;;;;;;5093811;28;20020;-65
2021/06/02 00:32:07;;;;;;;3.15;2.25;;;16.40;69.10;;;;;;5093512;28;20082;-65
2021/06/02 00:34:34;;;;;;;7.90;2.67;;;16.40;69.40;;;;;;5093364;28;20020;-65
2021/06/02 00:37:02;;;;;;;3.42;2.50;;;16.40;69.60;;;;;;5093355;28;20024;-65
2021/06/02 00:39:27;;;;;;;3.70;2.08;;;16.30;69.70;;;;;;5093475;28;20059;-63
2021/06/02 00:41:55;;;;;;;6.90;4.30;;;16.30;69.70;;;;;;5093381;28;20058;-63
2021/06/02 00:44:22;;;;;;;7.07;2.90;;;16.30;69.70;;;;;;5093462;28;20084;-62
2021/06/02 00:46:48;;;;;;;6.13;2.70;;;16.30;69.50;;;;;;5094042;28;20032;-62
2021/06/02 00:49:26;;;;;;;3.50;2.35;;;16.30;69.50;;;;;;5093678;28;20024;-62
2021/06/02 00:51:58;;;;;;;5.15;2.47;;;16.30;69.60;;;;;;5093990;28;20016;-62
2021/06/02 00:54:26;;;;;;;3.67;2.53;;;16.30;69.60;;;;;;5093790;28;20020;-62
2021/06/02 00:56:52;;;;;;;6.53;2.47;;;16.30;69.80;;;;;;5093781;28;20023;-60
2021/06/02 00:59:24;;;;;;;5.60;2.25;;;16.30;70.00;;;;;;5093860;28;20038;-61
2021/06/02 01:01:50;;;;;;;4.43;2.70;;;16.20;70.00;;;;;;5092127;28;20465;-61
2021/06/02 01:04:16;;;;;;;3.00;2.28;;;16.20;70.00;;;;;;5097603;28;20028;-61
2021/06/02 01:06:44;;;;;;;4.65;2.38;;;16.20;70.30;;;;;;5097552;28;20028;-62
2021/06/02 01:09:10;;;;;;;3.28;2.10;;;16.20;70.50;;;;;;5097676;28;20019;-61
2021/06/02 01:11:37;;;;;;;8.85;2.40;;;16.20;70.50;;;;;;5097504;28;20028;-61
2021/06/02 01:14:04;;;;;;;2.70;2.08;;;16.20;70.60;;;;;;5097049;28;20410;-61
2021/06/02 01:16:33;;;;;;;;;;;16.20;70.60;;;;;;5097694;28;20024;-60
2021/06/02 01:18:59;;;;;;;5.75;2.30;;;16.10;70.90;;;;;;5097969;28;19948;-61
2021/06/02 01:21:27;;;;;;;5.07;2.35;;;16.10;71.10;;;;;;5097470;28;20104;-62
2021/06/02 01:23:58;;;;;;;8.32;2.80;;;16.10;71.40;;;;;;5096863;28;20068;-61
2021/06/02 01:26:26;;;;;;;4.18;2.10;;;16.00;72.00;;;;;;5097289;28;20038;-61
2021/06/02 01:28:52;;;;;;;3.28;2.55;;;16.00;72.60;;;;;;5097010;28;20025;-60
2021/06/02 01:32:08;;;;;;;3.78;2.65;;;16.00;73.20;;;;;;5097475;28;20165;-62
2021/06/02 01:35:06;;;;;;;5.40;2.58;;;15.90;73.20;;;;;;5096697;28;20031;-62
2021/06/02 01:38:05;;;;;;;3.55;2.20;;;15.90;74.20;;;;;;5097339;28;20430;-61
2021/06/02 01:40:48;;;;;;;4.47;2.20;;;15.80;73.50;;;;;;5096916;28;20151;-61
2021/06/02 01:43:17;;;;;;;5.13;2.35;;;15.70;73.60;;;;;;5098260;28;20035;-64
2021/06/02 01:46:21;;;;;;;6.07;2.38;;;15.70;74.90;;;;;;5096547;28;20033;-64
2021/06/02 01:49:15;;;;;;;4.95;2.50;;;15.60;74.70;;;;;;5095723;28;20043;-64
2021/06/02 01:52:05;;;;;;;4.82;2.83;;;15.50;75.10;;;;;;5096352;28;20028;-64
2021/06/02 01:54:36;;;;;;;4.53;2.30;;;15.40;75.80;;;;;;5096884;28;20016;-64
2021/06/02 01:57:24;;;;;;;2.83;2.40;;;15.20;76.50;;;;;;5096403;28;20026;-64
2021/06/02 02:00:27;;;;;;;2.85;2.40;;;15.10;77.10;;;;;;5096564;28;20119;-64
2021/06/02 02:03:30;;;;;;;4.13;2.45;;;15.00;78.00;;;;;;5096260;28;20039;-64
2021/06/02 02:06:28;;;;;;;5.50;2.53;;;14.90;78.80;;;;;;5096282;28;20482;-64
2021/06/02 02:08:54;;;;;;;;;;;14.80;79.60;;;;;;5096921;28;20043;-63
2021/06/02 02:11:29;;;;;;;6.85;2.70;;;14.70;80.50;;;;;;5095855;28;19904;-63
2021/06/02 02:14:06;;;;;;;3.10;2.30;;;14.60;81.20;;;;;;5093504;28;20020;-63
2021/06/02 02:16:58;;;;;;;3.25;2.45;;;14.60;81.80;;;;;;5096363;28;20020;-63
2021/06/02 02:20:05;;;;;;;4.95;2.50;;;14.50;82.30;;;;;;5096040;28;20095;-64
2021/06/02 02:22:49;;;;;;;4.85;2.60;;;14.50;83.10;;;;;;5095735;28;20031;-65
2021/06/02 02:25:41;;;;;;;3.42;2.55;;;14.50;83.80;;;;;;5096151;28;20047;-64
2021/06/02 02:28:29;;;;;;;3.60;2.50;;;14.40;84.00;;;;;;5089968;28;20036;-64
2021/06/02 02:31:27;;;;;;;5.90;2.65;;;14.40;84.70;;;;;;5095501;28;20027;-64
2021/06/02 02:34:20;;;;;;;6.85;2.85;;;14.40;85.40;;;;;;5096078;28;20024;-64
2021/06/02 02:36:58;;;;;;;4.40;3.08;;;14.30;85.80;;;;;;5095863;28;20465;-64
2021/06/02 02:40:01;;;;;;;3.53;2.50;;;14.30;86.10;;;;;;5095742;28;20495;-64
2021/06/02 02:42:50;;;;;;;5.93;2.80;;;14.30;86.70;;;;;;5095507;28;20027;-64
2021/06/02 02:45:23;;;;;;;5.20;2.63;;;14.20;87.10;;;;;;5094462;28;20024;-64
2021/06/02 02:48:26;;;;;;;4.95;2.90;;;14.20;87.60;;;;;;5095845;28;20035;-64
2021/06/02 02:51:25;;;;;;;3.03;2.45;;;14.20;88.20;;;;;;5095592;28;20115;-64
2021/06/02 02:54:02;;;;;;;3.67;2.40;;;14.10;89.10;;;;;;5092666;28;20438;-64
2021/06/02 02:56:36;;;;;;;;;;;14.10;89.60;;;;;;5096206;28;20469;-64
2021/06/02 02:59:10;;;;;;;3.08;2.00;;;14.10;89.70;;;;;;5094005;28;19904;-64
2021/06/02 03:01:44;;;;;;;4.97;2.60;;;14.10;90.00;;;;;;5095353;28;20027;-62
2021/06/02 03:04:18;;;;;;;2.83;2.40;;;14.10;90.20;;;;;;5095837;28;20095;-63
2021/06/02 03:07:00;;;;;;;6.03;2.22;;;14.00;90.50;;;;;;5095715;28;20060;-63
2021/06/02 03:09:54;;;;;;;3.90;2.60;;;14.00;90.60;;;;;;5095503;28;20108;-63
2021/06/02 03:12:57;;;;;;;5.03;2.53;;;14.00;90.80;;;;;;5095051;28;20020;-63
2021/06/02 03:15:32;;;;;;;4.28;2.78;;;13.90;91.10;;;;;;5094992;28;20025;-62
2021/06/02 03:18:15;;;;;;;3.47;2.30;;;13.90;91.30;;;;;;5095333;28;20104;-62
2021/06/02 03:20:56;;;;;;;4.80;3.13;;;13.90;91.50;;;;;;5094963;28;20020;-62
2021/06/02 03:23:57;;;;;;;3.58;2.28;;;13.90;91.60;;;;;;5094947;28;20376;-62
2021/06/02 03:26:29;;;;;;;4.35;2.72;;;14.00;91.60;;;;;;5068880;28;20028;-63
2021/06/02 03:29:06;;;;;;;3.47;2.70;;;14.00;91.50;;;;;;5094576;28;20031;-64
2021/06/02 03:31:54;;;;;;;4.78;2.88;;;14.00;91.70;;;;;;5095272;28;20027;-61
2021/06/02 03:34:22;;;;;;;4.00;3.00;;;14.00;91.80;;;;;;5094628;28;20532;-62
2021/06/02 03:37:39;;;;;;;5.30;2.67;;;14.00;92.00;;;;;;5094395;28;20028;-62
2021/06/02 03:40:14;;;;;;;5.35;2.85;;;14.00;92.10;;;;;;5072529;28;20423;-60
2021/06/02 03:43:06;;;;;;;5.68;3.20;;;14.00;92.30;;;;;;5093017;28;20563;-62
2021/06/02 03:45:37;;;;;;;5.68;2.63;;;13.90;92.60;;;;;;5094536;28;20034;-61
2021/06/02 03:48:29;;;;;;;7.00;2.50;;;13.90;92.80;;;;;;5094612;28;20034;-61
2021/06/02 03:51:09;;;;;;;10.70;2.78;;;13.90;93.00;;;;;;5094171;28;20115;-61
2021/06/02 03:53:53;;;;;;;3.50;2.35;;;13.90;93.20;;;;;;5094345;28;20020;-61
2021/06/02 03:56:46;;;;;;;5.10;2.85;;;13.90;93.30;;;;;;5094129;28;20031;-61
2021/06/02 03:59:37;;;;;;;3.92;2.40;;;13.80;93.50;;;;;;5094436;28;20041;-61
2021/06/02 04:02:26;;;;;;;6.03;2.70;;;13.80;93.80;;;;;;5094857;28;20418;-61
2021/06/02 04:05:11;;;;;;;4.00;2.40;;;13.80;94.00;;;;;;5072960;28;20032;-62
2021/06/02 04:08:02;;;;;;;4.85;2.60;;;13.80;94.40;;;;;;5094473;28;20052;-60
2021/06/02 04:10:37;;;;;;;4.72;2.60;;;13.80;94.30;;;;;;5093981;28;20024;-61
2021/06/02 04:13:15;;;;;;;7.80;3.00;;;13.70;94.50;;;;;;5092481;28;20020;-62
2021/06/02 04:15:47;;;;;;;4.90;3.00;;;13.70;94.70;;;;;;5093899;28;20484;-61
2021/06/02 04:18:18;;;;;;;5.03;2.47;;;13.70;94.80;;;;;;5094322;28;20047;-62
2021/06/02 04:20:45;;;;;;;7.75;3.00;;;13.60;94.90;;;;;;5093588;28;20495;-62
2021/06/02 04:23:14;;;;;;;7.57;2.45;;;13.60;95.10;;;;;;5094595;28;20123;-60
2021/06/02 04:25:41;;;;;;;5.22;2.50;;;13.70;95.20;;;;;;5092449;28;20047;-61
2021/06/02 04:28:07;;;;;;;8.95;2.90;;;13.70;95.20;;;;;;5093710;28;20076;-61
2021/06/02 04:30:37;;;;;;;6.80;2.67;;;13.70;95.20;;;;;;5093649;28;20045;-61
2021/06/02 04:33:04;;;;;;;10.82;3.45;;;13.70;95.40;;;;;;5093580;28;20201;-62
2021/06/02 04:35:30;;;;;;;;;;;13.80;95.50;;;;;;5093881;28;20401;-62
2021/06/02 04:37:57;;;;;;;12.15;2.97;;;13.80;95.50;;;;;;5093072;28;19904;-61
2021/06/02 04:40:23;;;;;;;8.20;2.83;;;13.90;95.70;;;;;;5093559;28;20016;-62
2021/06/02 04:42:50;;;;;;;9.85;3.20;;;14.00;96.00;;;;;;5093554;28;20491;-62
2021/06/02 04:45:31;;;;;;;11.18;3.13;;;14.00;96.00;;;;;;5093433;28;20034;-62
2021/06/02 04:47:58;;;;;;;9.63;3.17;;;14.00;96.00;;;;;;5093486;28;20028;-62
2021/06/02 04:50:44;;;;;;;6.45;3.30;;;14.10;96.00;;;;;;5093250;28;20110;-62
2021/06/02 04:53:39;;;;;;;7.85;3.00;;;14.10;96.10;;;;;;5093728;28;20072;-62
2021/06/02 04:56:42;;;;;;;5.28;2.83;;;14.10;96.10;;;;;;5093454;28;20105;-61
2021/06/02 04:59:45;;;;;;;7.38;3.28;;;14.10;96.10;;;;;;5093311;28;20132;-63
2021/06/02 05:02:38;;;;;;;9.88;3.28;;;14.20;96.30;;;;;;5093327;28;20024;-62
2021/06/02 05:05:30;;;;;;;8.65;2.95;;;14.20;96.50;;;;;;5093299;28;20509;-62
2021/06/02 05:08:44;;;;;;;6.20;3.13;;;14.20;96.60;;;;;;5093337;28;20499;-62
2021/06/02 05:11:19;;;;;;;5.97;3.80;;;14.20;96.80;;;;;;5075754;28;20032;-61
2021/06/02 05:14:12;;;;;;;4.22;3.33;;;14.30;96.70;;;;;;5094062;28;20545;-62
2021/06/02 05:17:02;;;;;;;9.18;3.58;;;14.30;96.60;;;;;;5093359;28;20031;-62
2021/06/02 05:20:17;;;;;;;5.35;3.35;;;14.30;96.70;;;;;;5093179;28;20024;-62
2021/06/02 05:23:33;;;;;;;5.63;3.42;;;14.30;96.50;;;;;;5093594;28;20048;-62
2021/06/02 05:26:11;;;;;;;5.07;3.28;;;14.30;96.50;;;;;;5034042;28;20025;-61
2021/06/02 05:29:10;;;;;;;4.78;2.83;;;14.40;96.40;;;;;;5050819;28;20024;-62
2021/06/02 05:31:54;;;;;;;3.65;2.80;;;14.50;96.10;;;;;;5087377;28;20046;-62
2021/06/02 05:34:41;;;;;;;6.10;3.30;;;14.60;96.00;;;;;;5092913;28;20020;-62
2021/06/02 05:37:18;;;;;;;4.45;2.78;;;14.70;95.90;;;;;;5093069;28;20047;-62
2021/06/02 05:39:59;;;;;;;5.35;3.17;;;14.90;95.30;;;;;;5093196;28;20134;-62
2021/06/02 05:43:09;;;;;;;8.48;3.53;;;15.00;95.20;;;;;;5091504;28;20036;-62
2021/06/02 05:46:11;;;;;;;6.53;3.50;;;15.00;95.00;;;;;;5095269;28;20564;-63
2021/06/02 05:49:09;;;;;;;4.05;3.13;;;15.10;94.60;;;;;;5095713;28;20510;-62
2021/06/02 05:51:53;;;;;;;6.45;2.97;;;15.30;94.50;;;;;;5097843;28;20039;-63
2021/06/02 05:54:56;;;;;;;8.60;3.88;;;15.40;94.50;;;;;;5097857;28;20032;-62
2021/06/02 05:57:31;;;;;;;9.15;4.43;;;15.40;94.60;;;;;;5097155;28;20028;-62
2021/06/02 06:00:21;;;;;;;8.85;4.35;;;15.40;94.80;;;;;;5096885;28;20023;-62
2021/06/02 06:03:25;;;;;;;10.30;3.67;;;15.50;94.60;;;;;;5097023;28;20027;-59
2021/06/02 06:05:55;;;;;;;7.82;3.47;;;15.60;94.60;;;;;;5081340;28;20101;-61
2021/06/02 06:08:58;;;;;;;7.55;3.08;;;15.70;94.40;;;;;;5096559;28;20024;-62
2021/06/02 06:11:46;;;;;;;5.63;3.20;;;15.80;94.00;;;;;;5096254;28;20089;-62
2021/06/02 06:14:35;;;;;;;5.13;3.67;;;16.00;93.70;;;;;;5095014;28;20031;-62
2021/06/02 06:17:10;;;;;;;6.20;3.35;;;16.00;93.70;;;;;;5096960;28;20377;-61
2021/06/02 06:19:57;;;;;;;6.40;3.40;;;16.20;92.90;;;;;;5096237;28;20495;-61
2021/06/02 06:22:33;;;;;;;6.45;2.58;;;16.20;92.70;;;;;;5096706;28;20110;-62
2021/06/02 06:25:21;;;;;;;5.82;2.67;;;16.30;91.60;;;;;;5096415;28;20449;-62
2021/06/02 06:27:57;;;;;;;5.30;2.83;;;16.30;91.90;;;;;;5096331;28;20060;-63
2021/06/02 06:30:30;;;;;;;9.48;2.85;;;16.40;91.90;;;;;;5096046;28;20047;-62
2021/06/02 06:32:57;;;;;;;8.90;3.88;;;16.50;91.50;;;;;;5094581;28;20040;-60
2021/06/02 06:35:27;;;;;;;8.95;3.58;;;16.70;91.80;;;;;;5096068;28;20039;-61
2021/06/02 06:37:56;;;;;;;5.88;2.33;;;16.80;91.60;;;;;;5095845;28;20024;-61
2021/06/02 06:40:29;;;;;;;6.80;2.78;;;16.90;90.20;;;;;;5096298;28;20031;-61
2021/06/02 06:42:57;;;;;;;10.60;3.13;;;17.10;90.20;;;;;;5096132;28;20357;-62
2021/06/02 06:45:43;;;;;;;6.30;2.83;;;17.20;90.10;;;;;;5095958;28;20024;-62
2021/06/02 06:48:22;;;;;;;6.18;2.28;;;17.20;87.90;;;;;;5095670;28;20095;-62
2021/06/02 06:50:50;;;;;;;5.22;2.53;;;17.30;86.90;;;;;;5095436;28;20401;-62
2021/06/02 06:53:17;;;;;;;6.97;2.42;;;17.30;86.10;;;;;;5095259;28;20034;-63
2021/06/02 06:55:45;;;;;;;3.17;2.13;;;17.40;85.90;;;;;;5095488;28;20044;-62
2021/06/02 06:58:11;;;;;;;3.45;2.40;;;17.50;85.50;;;;;;5095785;28;20043;-63
2021/06/02 07:00:39;;;;;;;6.00;2.30;;;17.60;84.90;;;;;;5093473;28;20473;-62
2021/06/02 07:03:06;;;;;;;7.43;2.30;;;17.60;84.90;;;;;;5095290;28;20115;-62
2021/06/02 07:05:33;;;;;;;5.60;2.80;;;17.60;84.60;;;;;;5095196;28;20043;-62
2021/06/02 07:07:59;;;;;;;5.32;2.53;;;17.80;84.40;;;;;;5095056;28;20031;-61
2021/06/02 07:10:26;;;;;;;4.43;2.63;;;17.90;84.60;;;;;;5093808;28;20103;-61
2021/06/02 07:12:52;;;;;;;8.23;2.40;;;18.00;83.70;;;;;;5094942;28;20031;-61
2021/06/02 07:15:18;;;;;;;4.38;2.30;;;18.10;83.90;;;;;;5094657;28;20020;-62
2021/06/02 07:17:46;;;;;;;4.40;2.25;;;18.10;82.60;;;;;;5094974;28;20538;-62
2021/06/02 07:20:20;;;;;;;5.03;2.20;;;18.30;81.60;;;;;;5093313;28;20032;-63
2021/06/02 07:22:47;;;;;;;5.32;2.65;;;18.40;81.80;;;;;;5095132;28;20024;-62
2021/06/02 07:25:18;;;;;;;4.35;2.20;;;18.60;81.00;;;;;;5094802;28;20078;-62
2021/06/02 07:27:45;;;;;;;5.15;3.03;;;18.60;81.40;;;;;;5094851;28;20024;-62
2021/06/02 07:30:12;;;;;;;4.50;2.42;;;18.70;81.40;;;;;;5094782;28;20073;-63
2021/06/02 07:32:38;;;;;;;5.07;2.45;;;18.80;81.20;;;;;;5094499;28;20571;-62
2021/06/02 07:35:04;;;;;;;5.90;2.53;;;18.90;80.90;;;;;;5094476;28;20055;-63
2021/06/02 07:37:31;;;;;;;7.45;2.50;;;19.00;80.00;;;;;;5094574;28;20030;-62
2021/06/02 07:39:56;;;;;;;9.80;2.20;;;19.10;77.70;;;;;;5094417;28;20024;-62
2021/06/02 07:42:22;;;;;;;8.23;2.00;;;19.20;76.80;;;;;;5094811;28;20126;-61
2021/06/02 07:44:47;;;;;;;3.22;2.20;;;19.40;76.60;;;;;;5094891;28;20032;-62
2021/06/02 07:47:13;;;;;;;3.53;2.38;;;19.60;76.10;;;;;;5094167;28;20024;-62
2021/06/02 07:49:39;;;;;;;3.05;2.40;;;19.70;75.60;;;;;;5094299;28;20036;-63
2021/06/02 07:52:04;;;;;;;4.82;2.30;;;19.80;75.80;;;;;;5094624;28;20437;-63
2021/06/02 07:54:30;;;;;;;5.45;2.55;;;20.00;76.00;;;;;;5094008;28;20107;-63
2021/06/02 07:56:56;;;;;;;3.95;2.40;;;20.10;75.40;;;;;;5094007;28;20063;-61
2021/06/02 07:59:21;;;;;;;4.85;2.80;;;20.20;75.10;;;;;;5094398;28;20073;-62
2021/06/02 08:01:47;;;;;;;4.68;2.33;;;20.40;74.60;;;;;;5092776;28;20158;-62
2021/06/02 08:04:14;;;;;;;8.85;2.90;;;20.60;74.40;;;;;;5093835;28;20035;-62
2021/06/02 08:06:40;;;;;;;;;;;20.90;74.10;;;;;;5094269;28;20016;-62
2021/06/02 08:09:06;;;;;;;2.35;2.15;;;22.10;71.30;;;;;;5094028;28;19904;-62
2021/06/02 08:11:32;;;;;;;5.28;2.20;;;24.10;66.80;;;;;;5093372;28;20431;-61
2021/06/02 08:13:57;;;;;;;;;;;26.00;62.10;;;;;;5093735;28;20024;-62
2021/06/02 08:16:23;;;;;;;4.60;2.38;;;28.10;58.90;;;;;;5092432;28;19915;-63
2021/06/02 08:18:50;;;;;;;4.90;2.25;;;30.00;54.00;;;;;;5093816;28;20023;-65
2021/06/02 08:21:15;;;;;;;6.28;2.13;;;31.50;49.70;;;;;;5093990;28;20021;-63
2021/06/02 08:23:41;;;;;;;5.18;2.05;;;32.40;46.30;;;;;;5093597;28;20527;-63
2021/06/02 08:26:08;;;;;;;4.40;2.03;;;33.50;44.50;;;;;;5093579;28;20024;-62
2021/06/02 08:28:33;;;;;;;4.13;2.30;;;33.90;43.40;;;;;;5093605;28;20106;-63
2021/06/02 08:30:59;;;;;;;7.00;3.22;;;34.50;42.70;;;;;;5093532;28;20063;-63
2021/06/02 08:33:25;;;;;;;3.72;2.40;;;35.30;41.20;;;;;;5093538;28;20050;-63
2021/06/02 08:35:51;;;;;;;2.67;2.08;;;35.70;40.40;;;;;;5092976;28;20115;-63
2021/06/02 08:38:17;;;;;;;5.35;2.22;;;36.10;39.90;;;;;;5093484;28;20028;-63
2021/06/02 08:40:42;;;;;;;3.33;2.55;;;36.10;39.50;;;;;;5094102;28;20015;-64
2021/06/02 08:43:08;;;;;;;2.92;2.30;;;36.20;38.90;;;;;;5093679;28;20138;-63
2021/06/02 08:45:34;;;;;;;5.20;2.50;;;36.90;38.60;;;;;;5093642;28;20077;-62
2021/06/02 08:48:00;;;;;;;4.07;2.20;;;36.80;38.10;;;;;;5093466;28;20386;-63
2021/06/02 08:50:26;;;;;;;3.97;2.50;;;37.90;37.40;;;;;;5093509;28;20058;-64
2021/06/02 08:52:52;;;;;;;3.60;2.20;;;38.40;36.50;;;;;;5093320;28;20032;-63
2021/06/02 08:55:21;;;;;;;4.32;2.72;;;38.60;36.30;;;;;;5093605;28;20020;-63
2021/06/02 08:57:49;;;;;;;6.75;2.42;;;39.10;36.20;;;;;;5094161;28;20402;-63
2021/06/02 09:00:17;;;;;;;4.95;2.00;;;39.40;35.40;;;;;;5093392;28;20021;-63
2021/06/02 09:02:46;;;;;;;4.72;2.00;;;39.70;34.10;;;;;;5093669;28;20052;-63
2021/06/02 09:05:13;;;;;;;4.03;2.10;;;39.50;33.90;;;;;;5093560;28;20046;-63
2021/06/02 09:07:40;;;;;;;3.50;1.90;;;39.10;33.90;;;;;;5093592;28;20528;-63
2021/06/02 09:10:11;;;;;;;3.28;2.25;;;39.30;33.70;;;;;;5093450;28;20032;-63
2021/06/02 09:12:41;;;;;;;5.05;2.20;;;39.90;34.10;;;;;;5093866;28;20016;-63
2021/06/02 09:15:12;;;;;;;3.40;2.40;;;40.60;33.90;;;;;;5093631;28;20505;-63
2021/06/02 09:17:59;;;;;;;3.50;2.42;;;40.50;34.60;;;;;;5093551;28;20099;-63
2021/06/02 09:20:41;;;;;;;6.28;2.30;;;38.90;35.40;;;;;;5093545;28;20016;-63
2021/06/02 09:23:38;;;;;;;5.75;2.15;;;38.90;35.70;;;;;;5093891;28;20039;-63
2021/06/02 09:26:11;;;;;;;4.18;2.15;;;38.60;35.00;;;;;;5097076;28;20031;-63
2021/06/02 09:28:54;;;;;;;13.95;2.90;;;38.60;34.60;;;;;;5097242;28;20016;-63
2021/06/02 09:31:32;;;;;;;4.45;3.40;;;39.30;34.30;;;;;;5097263;28;20044;-66
2021/06/02 09:34:24;;;;;;;3.78;2.30;;;39.90;34.30;;;;;;5096854;28;20024;-67
2021/06/02 09:36:59;;;;;;;5.43;2.33;;;40.50;32.80;;;;;;5096833;28;20103;-66
2021/06/02 09:39:24;;;;;;;;;;;40.70;32.60;;;;;;5097330;28;20027;-66
2021/06/02 09:41:57;;;;;;;3.67;2.10;;;40.90;31.70;;;;;;5096542;28;19904;-67
2021/06/02 09:44:24;;;;;;;7.78;2.20;;;41.20;31.40;;;;;;5096572;28;20013;-64
2021/06/02 09:46:59;;;;;;;4.53;1.98;;;41.10;31.50;;;;;;5096688;28;20024;-63
2021/06/02 09:49:26;;;;;;;8.35;2.30;;;41.20;31.60;;;;;;5095156;28;20039;-64
2021/06/02 09:51:52;;;;;;;2.40;2.00;;;41.00;31.40;;;;;;5096596;28;20158;-64
2021/06/02 09:54:22;;;;;;;2.25;1.95;;;40.10;31.70;;;;;;5096733;28;20020;-63
2021/06/02 09:56:48;;;;;;;2.40;1.85;;;40.70;31.60;;;;;;5096302;28;20020;-63
2021/06/02 09:59:15;;;;;;;4.10;2.03;;;39.80;31.70;;;;;;5096449;28;20039;-62
2021/06/02 10:01:57;;;;;;;6.63;2.25;;;39.30;31.90;;;;;;5096052;28;20027;-64
2021/06/02 10:04:33;;;;;;;8.30;2.03;;;38.60;32.10;;;;;;5096389;28;20020;-63
2021/06/02 10:06:59;;;;;;;2.72;1.95;;;38.30;32.40;;;;;;5096533;28;20020;-63
2021/06/02 10:09:33;;;;;;;4.40;2.08;;;38.70;32.50;;;;;;5095961;28;20019;-63
2021/06/02 10:12:04;;;;;;;3.40;1.88;;;39.90;32.10;;;;;;5096134;28;20024;-63
2021/06/02 10:14:31;;;;;;;4.00;1.95;;;39.40;32.10;;;;;;5095917;28;20027;-63
2021/06/02 10:16:57;;;;;;;4.95;1.60;;;38.40;32.50;;;;;;5096073;28;20095;-63
2021/06/02 10:19:35;;;;;;;4.60;1.65;;;38.80;32.60;;;;;;5095921;28;20103;-65
2021/06/02 10:22:03;;;;;;;3.60;2.03;;;39.40;31.70;;;;;;5096043;28;20031;-65
2021/06/02 10:24:30;;;;;;;5.03;2.13;;;39.70;31.80;;;;;;5095617;28;20028;-65
2021/06/02 10:26:57;;;;;;;2.63;2.00;;;40.40;31.50;;;;;;5095755;28;20027;-65
2021/06/02 10:29:23;;;;;;;3.95;2.10;;;40.60;31.20;;;;;;5095843;28;20031;-65
2021/06/02 10:31:49;;;;;;;4.05;2.00;;;40.90;31.10;;;;;;5095309;28;20384;-66
2021/06/02 10:34:15;;;;;;;2.95;2.15;;;41.00;31.30;;;;;;5095418;28;20036;-65
2021/06/02 10:36:42;;;;;;;3.80;2.00;;;41.30;31.00;;;;;;5094835;28;20047;-65
2021/06/02 10:39:08;;;;;;;3.17;2.00;;;41.80;30.90;;;;;;5095370;28;20024;-65
2021/06/02 10:41:42;;;;;;;3.15;2.08;;;42.30;30.60;;;;;;5095400;28;20365;-64
2021/06/02 10:44:10;;;;;;;3.28;1.90;;;42.00;30.50;;;;;;5095566;28;20334;-61
2021/06/02 10:46:41;;;;;;;3.90;2.10;;;41.40;30.80;;;;;;5095638;28;20027;-63
2021/06/02 10:49:06;;;;;;;2.72;2.53;;;41.10;30.90;;;;;;5095053;28;20092;-65
2021/06/02 10:51:32;;;;;;;2.45;2.13;;;40.80;30.80;;;;;;5095203;28;20466;-64
2021/06/02 10:54:16;;;;;;;4.82;1.92;;;40.30;30.90;;;;;;5095179;28;20028;-65
2021/06/02 10:56:57;;;;;;;3.30;2.10;;;39.40;31.30;;;;;;5095617;28;20099;-65
2021/06/02 10:59:32;;;;;;;3.05;2.10;;;40.00;30.40;;;;;;5095241;28;20050;-65
2021/06/02 11:02:09;;;;;;;4.25;2.00;;;40.30;30.30;;;;;;5095391;28;20146;-65
2021/06/02 11:04:39;;;;;;;4.03;2.80;;;38.90;30.60;;;;;;5095277;28;20024;-65
2021/06/02 11:07:15;;;;;;;4.03;2.05;;;37.90;31.70;;;;;;5094979;28;20020;-65
2021/06/02 11:09:54;;;;;;;6.82;2.10;;;36.40;32.20;;;;;;5095700;28;20433;-65
2021/06/02 11:12:20;;;;;;;11.02;2.60;;;34.20;33.40;;;;;;5095170;28;20039;-65
2021/06/02 11:14:46;;;;;;;4.30;2.15;;;32.90;34.60;;;;;;5095105;28;20020;-63
2021/06/02 11:17:13;;;;;;;2.28;1.98;;;32.30;34.90;;;;;;5095108;28;20024;-65
2021/06/02 11:19:54;;;;;;;4.20;2.15;;;31.70;35.50;;;;;;5094982;28;20025;-65
2021/06/02 11:22:26;;;;;;;3.28;1.85;;;31.10;36.50;;;;;;5094968;28;20017;-65
2021/06/02 11:24:54;;;;;;;3.78;2.15;;;30.50;36.90;;;;;;5094945;28;20024;-65
2021/06/02 11:27:19;;;;;;;5.88;2.00;;;30.10;36.80;;;;;;5094622;28;20427;-65
2021/06/02 11:29:48;;;;;;;3.83;2.40;;;29.80;37.40;;;;;;5094808;28;20031;-63
2021/06/02 11:32:15;;;;;;;4.32;2.20;;;29.20;37.70;;;;;;5094653;28;20024;-61
2021/06/02 11:34:42;;;;;;;3.80;2.20;;;28.70;37.70;;;;;;5094779;28;20016;-62
2021/06/02 11:37:10;;;;;;;5.57;2.10;;;28.40;38.90;;;;;;5095215;28;20071;-65
2021/06/02 11:39:37;;;;;;;5.75;2.20;;;28.30;39.20;;;;;;5094786;28;20020;-64
2021/06/02 11:42:05;;;;;;;5.68;2.33;;;28.20;38.70;;;;;;5094223;28;20024;-64
2021/06/02 11:44:33;;;;;;;6.85;2.40;;;28.00;39.00;;;;;;5094176;28;20027;-64
2021/06/02 11:46:58;;;;;;;4.22;2.45;;;27.80;39.40;;;;;;5093933;28;20087;-62
2021/06/02 11:49:28;;;;;;;5.13;2.30;;;27.60;39.50;;;;;;5093663;28;20039;-63
2021/06/02 11:51:58;;;;;;;3.33;2.00;;;27.50;39.70;;;;;;5093998;28;20028;-63
2021/06/02 11:54:24;;;;;;;3.53;2.03;;;27.50;39.70;;;;;;5092754;28;20031;-64
2021/06/02 11:56:50;;;;;;;3.78;2.58;;;27.30;39.40;;;;;;5092908;28;20407;-63
2021/06/02 11:59:16;;;;;;;3.60;2.13;;;27.20;40.00;;;;;;5094055;28;20018;-62
2021/06/02 12:01:41;;;;;;;6.03;1.98;;;27.20;40.00;;;;;;5093843;28;20028;-62
2021/06/02 12:04:07;;;;;;;4.07;1.70;;;27.30;40.30;;;;;;5094138;28;20069;-62
2021/06/02 12:06:34;;;;;;;5.93;2.72;;;27.40;40.20;;;;;;5092513;28;20035;-64
2021/06/02 12:09:03;;;;;;;3.55;2.15;;;27.40;40.50;;;;;;5093671;28;20024;-64
2021/06/02 12:11:28;;;;;;;3.25;2.13;;;27.60;40.60;;;;;;5093672;28;20125;-63
2021/06/02 12:13:54;;;;;;;3.45;2.03;;;27.70;40.40;;;;;;5093968;28;20028;-62
2021/06/02 12:16:25;;;;;;;3.80;2.28;;;27.80;39.90;;;;;;5093405;28;20051;-62
2021/06/02 12:18:51;;;;;;;6.65;2.78;;;27.80;39.10;;;;;;5092241;28;20023;-65
2021/06/02 12:21:26;;;;;;;4.75;2.20;;;27.80;39.50;;;;;;5093547;28;20044;-65
2021/06/02 12:23:59;;;;;;;4.65;2.30;;;28.00;40.10;;;;;;5094129;28;20073;-65
2021/06/02 12:26:32;;;;;;;5.15;2.40;;;28.00;40.00;;;;;;5093622;28;20108;-65
2021/06/02 12:29:03;;;;;;;6.35;2.33;;;28.00;39.30;;;;;;5093466;28;20023;-65
2021/06/02 12:31:39;;;;;;;4.40;2.10;;;27.90;39.50;;;;;;5093559;28;20025;-64
2021/06/02 12:34:23;;;;;;;5.18;2.15;;;27.80;39.50;;;;;;5093506;28;20435;-64
2021/06/02 12:37:01;;;;;;;2.88;2.13;;;27.80;40.30;;;;;;5093677;28;20032;-63
2021/06/02 12:39:29;;;;;;;4.65;2.20;;;27.70;39.90;;;;;;5093633;28;20012;-62
2021/06/02 12:41:56;;;;;;;5.15;2.40;;;27.70;40.00;;;;;;5093753;28;20426;-66
2021/06/02 12:44:24;;;;;;;3.22;1.80;;;27.60;40.20;;;;;;5093259;28;20081;-63
2021/06/02 12:47:11;;;;;;;6.20;2.30;;;27.50;40.70;;;;;;5093273;28;20445;-64
2021/06/02 12:49:45;;;;;;;6.93;2.20;;;27.50;40.40;;;;;;5093464;28;20040;-62
2021/06/02 12:52:11;;;;;;;6.07;1.70;;;27.50;40.30;;;;;;5093914;28;20406;-64
2021/06/02 12:54:40;;;;;;;2.38;2.05;;;27.50;40.20;;;;;;5093378;28;20016;-64
2021/06/02 12:57:06;;;;;;;5.28;2.05;;;27.50;40.60;;;;;;5093204;28;20016;-61
2021/06/02 12:59:34;;;;;;;7.55;2.08;;;27.50;40.70;;;;;;5092669;28;20028;-62
2021/06/02 13:02:02;;;;;;;3.45;2.20;;;27.70;40.80;;;;;;5093237;28;20135;-62
2021/06/02 13:04:29;;;;;;;4.50;1.80;;;27.90;40.40;;;;;;5094146;28;20500;-62
2021/06/02 13:06:56;;;;;;;2.85;1.90;;;27.90;39.80;;;;;;5093299;28;20408;-65
2021/06/02 13:09:23;;;;;;;4.90;2.25;;;27.80;40.30;;;;;;5092637;28;20088;-62
2021/06/02 13:11:50;;;;;;;4.90;1.83;;;27.90;40.30;;;;;;5092819;28;20024;-62
2021/06/02 13:14:16;;;;;;;4.28;2.30;;;27.90;40.40;;;;;;5092869;28;20050;-62
2021/06/02 13:16:50;;;;;;;3.72;1.95;;;27.90;40.40;;;;;;5093442;28;20142;-62
2021/06/02 13:19:16;;;;;;;3.65;2.20;;;28.00;40.60;;;;;;5092941;28;20016;-62
2021/06/02 13:21:51;;;;;;;4.13;1.85;;;28.10;40.50;;;;;;5093369;28;20027;-62
2021/06/02 13:24:19;;;;;;;3.42;2.70;;;28.10;40.30;;;;;;5094364;28;20114;-63
2021/06/02 13:26:55;;;;;;;4.63;2.28;;;28.10;40.30;;;;;;5093947;28;20044;-63